Oasis of the Seas — C6XS7 — position and weather

sailwx.info

Track history (hours):
 
Tides and Currents Weather Stations Pressure Air Temp Water Temp Dewpoint Dewpoint Depression Visibility Wind Speed Wind Dir Waves Ship Positions

Oasis of the Seas

Last reported at 2014-Dec-20 20:29 UTC. Time now 2014-Dec-20 20:45 UTC.
Position N 26°05' W 080°07'.

Length 360 m; draft 9.3 m.

Type: Passenger vessel. MMSI: 311020600.

Date/timePositionNaut miles runAvg speedWind from/ knotsBaromVisibWave heightAir tempDewpointWater temp
2014-Dec-20 20:29N 26°05' W 080°07'0 0.0
2014-Dec-20 19:29N 26°05' W 080°07'0 0.0
2014-Dec-20 18:29N 26°05' W 080°07'0 0.0
2014-Dec-20 17:29N 26°05' W 080°07'0 0.0
2014-Dec-20 16:32N 26°05' W 080°07'0 0.0
2014-Dec-20 15:32N 26°05' W 080°07'0 0.0
2014-Dec-20 14:32N 26°05' W 080°07'0 0.0
2014-Dec-20 13:32N 26°05' W 080°07'0 0.0
2014-Dec-20 12:32N 26°05' W 080°07'0 0.0
2014-Dec-20 11:32N 26°05' W 080°07'0 0.1
2014-Dec-20 10:34N 26°05' W 080°07'1211.7
2014-Dec-20 09:33N 26°06' W 079°54'1716.9
2014-Dec-20 08:33N 26°08' W 079°35'79217.8
2014-Dec-18 12:00N 20°18' W 066°42'165 4.8 040 / 311018.010.8 2.025.023.630.0
2014-Dec-17 01:15N 18°11' W 064°50'52714.1
2014-Dec-15 12:00N 23°06' W 072°36'11419.1 040 / 181015.927.0 21.7
2014-Dec-15 06:00N 24°12' W 074°18'31610.4 010 / 141015.527.0 21.8 27.9
2014-Dec-13 23:34N 26°08' W 079°43'1413.8
2014-Dec-13 22:33N 26°06' W 079°58'8 7.4
2014-Dec-13 21:26N 26°05' W 080°07'0 0.0
2014-Dec-13 20:27N 26°05' W 080°07'0 0.0
2014-Dec-13 19:30N 26°05' W 080°07'0 0.0
2014-Dec-13 18:30N 26°05' W 080°07'0 0.0
2014-Dec-13 17:30N 26°05' W 080°07'0 0.0
2014-Dec-13 16:32N 26°05' W 080°07'0 0.0
2014-Dec-13 15:32N 26°05' W 080°07'0 0.0
2014-Dec-13 14:32N 26°05' W 080°07'0 0.0
2014-Dec-13 13:32N 26°05' W 080°07'0 0.0
2014-Dec-13 12:32N 26°05' W 080°07'0 0.0
2014-Dec-13 11:32N 26°05' W 080°07'3 2.9
2014-Dec-13 10:33N 26°06' W 080°04'1211.7
2014-Dec-13 09:33N 25°55' W 079°58'1615.5
2014-Dec-13 08:33N 25°40' W 079°56'29414.3
2014-Dec-12 12:00N 22°48' W 084°18'20117.1 120 / 71021.627.0 0.520.8 28.0
2014-Dec-12 00:14N 20°33' W 086°59'4 5.4
2014-Dec-11 23:33N 20°29' W 086°59'0 0.0
2014-Dec-11 22:28N 20°29' W 086°59'0 0.0
2014-Dec-11 21:28N 20°29' W 086°59'0 0.0
2014-Dec-11 20:28N 20°29' W 086°59'0 0.0
2014-Dec-11 19:31N 20°29' W 086°59'0 0.0
2014-Dec-11 18:31N 20°29' W 086°59'0 0.0
2014-Dec-11 17:31N 20°29' W 086°59'0 0.0
2014-Dec-11 16:31N 20°29' W 086°59'0 0.0
2014-Dec-11 15:31N 20°29' W 086°59'0 0.0
2014-Dec-11 14:31N 20°29' W 086°59'0 0.0
2014-Dec-11 13:31N 20°29' W 086°59'0 0.1
2014-Dec-11 12:33N 20°29' W 086°59'8312.7
2014-Dec-11 06:00N 20°24' W 085°30'   040 / 121018.327.0 1.023.5 29.4
Track history (hours):
 
Tides and Currents Weather Stations Pressure Air Temp Water Temp Dewpoint Dewpoint Depression Visibility Wind Speed Wind Dir Waves Ship Positions

Oasis of the Seas

Last reported at 2014-Dec-20 20:29 UTC. Time now 2014-Dec-20 20:45 UTC.
Position N 26°05' W 080°07'.

Length 360 m; draft 9.3 m.

Type: Passenger vessel. MMSI: 311020600.

Date/timePositionNaut miles runAvg speedWind from/ knotsBaromVisibWave heightAir tempDewpointWater temp
2014-Dec-20 20:29N 26°05' W 080°07'0 0.0
2014-Dec-20 19:29N 26°05' W 080°07'0 0.0
2014-Dec-20 18:29N 26°05' W 080°07'0 0.0
2014-Dec-20 17:29N 26°05' W 080°07'0 0.0
2014-Dec-20 16:32N 26°05' W 080°07'0 0.0
2014-Dec-20 15:32N 26°05' W 080°07'0 0.0
2014-Dec-20 14:32N 26°05' W 080°07'0 0.0
2014-Dec-20 13:32N 26°05' W 080°07'0 0.0
2014-Dec-20 12:32N 26°05' W 080°07'0 0.0
2014-Dec-20 11:32N 26°05' W 080°07'0 0.1
2014-Dec-20 10:34N 26°05' W 080°07'1211.7
2014-Dec-20 09:33N 26°06' W 079°54'1716.9
2014-Dec-20 08:33N 26°08' W 079°35'79217.8
2014-Dec-18 12:00N 20°18' W 066°42'165 4.8 040 / 311018.010.8 2.025.023.630.0
2014-Dec-17 01:15N 18°11' W 064°50'52714.1
2014-Dec-15 12:00N 23°06' W 072°36'11419.1 040 / 181015.927.0 21.7
2014-Dec-15 06:00N 24°12' W 074°18'31610.4 010 / 141015.527.0 21.8 27.9
2014-Dec-13 23:34N 26°08' W 079°43'1413.8
2014-Dec-13 22:33N 26°06' W 079°58'8 7.4
2014-Dec-13 21:26N 26°05' W 080°07'0 0.0
2014-Dec-13 20:27N 26°05' W 080°07'0 0.0
2014-Dec-13 19:30N 26°05' W 080°07'0 0.0
2014-Dec-13 18:30N 26°05' W 080°07'0 0.0
2014-Dec-13 17:30N 26°05' W 080°07'0 0.0
2014-Dec-13 16:32N 26°05' W 080°07'0 0.0
2014-Dec-13 15:32N 26°05' W 080°07'0 0.0
2014-Dec-13 14:32N 26°05' W 080°07'0 0.0
2014-Dec-13 13:32N 26°05' W 080°07'0 0.0
2014-Dec-13 12:32N 26°05' W 080°07'0 0.0
2014-Dec-13 11:32N 26°05' W 080°07'3 2.9
2014-Dec-13 10:33N 26°06' W 080°04'1211.7
2014-Dec-13 09:33N 25°55' W 079°58'1615.5
2014-Dec-13 08:33N 25°40' W 079°56'29414.3
2014-Dec-12 12:00N 22°48' W 084°18'20117.1 120 / 71021.627.0 0.520.8 28.0
2014-Dec-12 00:14N 20°33' W 086°59'4 5.4
2014-Dec-11 23:33N 20°29' W 086°59'0 0.0
2014-Dec-11 22:28N 20°29' W 086°59'0 0.0
2014-Dec-11 21:28N 20°29' W 086°59'0 0.0
2014-Dec-11 20:28N 20°29' W 086°59'0 0.0
2014-Dec-11 19:31N 20°29' W 086°59'0 0.0
2014-Dec-11 18:31N 20°29' W 086°59'0 0.0
2014-Dec-11 17:31N 20°29' W 086°59'0 0.0
2014-Dec-11 16:31N 20°29' W 086°59'0 0.0
2014-Dec-11 15:31N 20°29' W 086°59'0 0.0
2014-Dec-11 14:31N 20°29' W 086°59'0 0.0
2014-Dec-11 13:31N 20°29' W 086°59'0 0.1
2014-Dec-11 12:33N 20°29' W 086°59'8312.7
2014-Dec-11 06:00N 20°24' W 085°30'   040 / 121018.327.0 1.023.5 29.4

Dump ship's entire track history